createdAt,value
2023-05-06T00:02:13.094Z,12.70
2023-05-06T00:04:41.121Z,12.80
2023-05-06T00:07:08.617Z,12.60
2023-05-06T00:09:35.291Z,12.70
2023-05-06T00:12:01.966Z,12.70
2023-05-06T00:14:28.634Z,12.80
2023-05-06T00:16:55.705Z,12.80
2023-05-06T00:19:22.701Z,12.80
2023-05-06T00:21:49.497Z,12.80
2023-05-06T00:24:16.179Z,12.90
2023-05-06T00:26:42.815Z,12.80
2023-05-06T00:29:09.708Z,12.60
2023-05-06T00:31:36.441Z,12.30
2023-05-06T00:34:03.230Z,12.20
2023-05-06T00:36:30.148Z,12.20
2023-05-06T00:38:56.889Z,12.20
2023-05-06T00:41:23.580Z,12.40
2023-05-06T00:43:50.561Z,12.60
2023-05-06T00:46:17.617Z,12.70
2023-05-06T00:48:45.349Z,12.70
2023-05-06T00:51:12.651Z,12.90
2023-05-06T00:53:40.158Z,12.70
2023-05-06T00:56:07.505Z,12.80
2023-05-06T00:58:35.053Z,12.80
2023-05-06T01:01:02.243Z,12.80
2023-05-06T01:03:29.277Z,12.70
2023-05-06T01:06:19.224Z,12.70
2023-05-06T01:08:55.020Z,12.70
2023-05-06T01:11:33.103Z,12.80
2023-05-06T01:14:06.527Z,12.70
2023-05-06T01:16:36.411Z,12.70
2023-05-06T01:19:08.860Z,12.70
2023-05-06T01:21:37.943Z,12.80
2023-05-06T01:24:04.845Z,12.90
2023-05-06T01:26:31.706Z,12.90
2023-05-06T01:28:58.880Z,12.90
2023-05-06T01:31:50.802Z,12.80
2023-05-06T01:34:27.268Z,12.80
2023-05-06T01:37:12.847Z,12.70
2023-05-06T01:39:41.733Z,12.70
2023-05-06T01:42:10.281Z,13.00
2023-05-06T01:44:38.934Z,12.60
2023-05-06T01:47:07.448Z,12.80
2023-05-06T01:49:34.600Z,12.70
2023-05-06T01:52:02.464Z,12.50
2023-05-06T01:54:29.253Z,12.30
2023-05-06T01:56:55.969Z,12.40
2023-05-06T01:59:22.756Z,12.40
2023-05-06T02:01:49.508Z,12.50
2023-05-06T02:04:16.302Z,12.40
2023-05-06T02:06:43.102Z,12.30
2023-05-06T02:09:09.857Z,12.20
2023-05-06T02:11:36.598Z,12.20
2023-05-06T02:14:03.344Z,12.30
2023-05-06T02:16:30.254Z,12.30
2023-05-06T02:18:57.049Z,12.00
2023-05-06T02:21:24.089Z,12.00
2023-05-06T02:23:50.851Z,12.10
2023-05-06T02:26:17.605Z,12.20
2023-05-06T02:28:44.342Z,12.20
2023-05-06T02:31:15.126Z,12.20
2023-05-06T02:33:42.144Z,12.10
2023-05-06T02:36:08.964Z,12.00
2023-05-06T02:38:35.751Z,12.00
2023-05-06T02:41:02.499Z,11.60
2023-05-06T02:43:29.230Z,11.60
2023-05-06T02:45:55.991Z,11.60
2023-05-06T02:48:22.737Z,11.80
2023-05-06T02:50:49.979Z,11.80
2023-05-06T02:53:16.659Z,11.90
2023-05-06T02:55:43.388Z,11.80
2023-05-06T02:58:10.100Z,11.80
2023-05-06T03:00:37.051Z,11.80
2023-05-06T03:03:04.170Z,11.80
2023-05-06T03:05:31.087Z,11.80
2023-05-06T03:07:57.976Z,11.90
2023-05-06T03:10:24.663Z,12.00
2023-05-06T03:12:51.421Z,11.90
2023-05-06T03:15:18.108Z,11.80
2023-05-06T03:17:46.676Z,11.70
2023-05-06T03:20:13.867Z,11.70
2023-05-06T03:22:42.554Z,11.60
2023-05-06T03:25:09.595Z,11.50
2023-05-06T03:27:36.549Z,11.50
2023-05-06T03:30:03.995Z,11.50
2023-05-06T03:32:31.050Z,11.60
2023-05-06T03:34:57.847Z,11.60
2023-05-06T03:37:24.651Z,11.70
2023-05-06T03:39:51.336Z,11.70
2023-05-06T03:42:18.116Z,11.70
2023-05-06T03:44:44.818Z,11.80
2023-05-06T03:47:11.506Z,11.80
2023-05-06T03:49:38.188Z,11.80
2023-05-06T03:52:05.362Z,11.80
2023-05-06T03:54:32.088Z,11.70
2023-05-06T03:56:58.781Z,11.60
2023-05-06T03:59:25.663Z,11.70
2023-05-06T04:01:52.372Z,11.70
2023-05-06T04:04:19.240Z,11.70
2023-05-06T04:06:45.924Z,11.80
2023-05-06T04:09:12.625Z,11.80
2023-05-06T04:11:39.299Z,11.80
2023-05-06T04:14:06.092Z,11.90
2023-05-06T04:16:32.821Z,11.90
2023-05-06T04:18:59.578Z,11.90
2023-05-06T04:21:26.388Z,12.00
2023-05-06T04:23:54.677Z,12.00
2023-05-06T04:26:21.739Z,11.90
2023-05-06T04:28:48.440Z,12.00
2023-05-06T04:31:15.653Z,12.00
2023-05-06T04:33:42.471Z,12.10
2023-05-06T04:36:09.471Z,12.10
2023-05-06T04:38:37.447Z,12.20
2023-05-06T04:41:05.627Z,12.10
2023-05-06T04:43:32.914Z,12.10
2023-05-06T04:45:59.949Z,12.10
2023-05-06T04:48:26.917Z,12.10
2023-05-06T04:50:53.710Z,12.10
2023-05-06T04:53:20.572Z,12.10
2023-05-06T04:55:47.302Z,12.10
2023-05-06T04:58:14.502Z,12.00
2023-05-06T05:00:41.424Z,12.00
2023-05-06T05:03:08.289Z,12.00
2023-05-06T05:05:35.053Z,12.10
2023-05-06T05:08:01.840Z,12.10
2023-05-06T05:10:28.651Z,12.10
2023-05-06T05:12:55.431Z,12.00
2023-05-06T05:15:22.210Z,12.10
2023-05-06T05:17:50.574Z,12.10
2023-05-06T05:20:17.364Z,12.20
2023-05-06T05:22:44.061Z,12.30
2023-05-06T05:25:10.912Z,12.30
2023-05-06T05:27:37.850Z,12.40
2023-05-06T05:30:04.981Z,12.40
2023-05-06T05:32:31.723Z,12.40
2023-05-06T05:34:58.508Z,12.50
2023-05-06T05:37:25.232Z,12.50
2023-05-06T05:39:52.057Z,12.70
2023-05-06T05:42:18.816Z,12.50
2023-05-06T05:44:45.704Z,12.40
2023-05-06T05:47:12.785Z,12.30
2023-05-06T05:49:39.571Z,12.40
2023-05-06T05:52:07.240Z,12.30
2023-05-06T05:54:34.015Z,12.30
2023-05-06T05:57:00.922Z,12.40
2023-05-06T05:59:28.777Z,12.60
2023-05-06T06:01:55.519Z,12.70
2023-05-06T06:04:22.226Z,12.80
2023-05-06T06:06:49.023Z,12.90
2023-05-06T06:09:16.912Z,13.10
2023-05-06T06:11:43.736Z,13.20
2023-05-06T06:14:11.304Z,13.20
2023-05-06T06:16:38.361Z,13.40
2023-05-06T06:19:05.417Z,13.30
2023-05-06T06:21:32.267Z,13.50
2023-05-06T06:23:59.160Z,13.50
2023-05-06T06:26:25.978Z,13.50
2023-05-06T06:28:52.786Z,13.60
2023-05-06T06:31:19.498Z,13.60
2023-05-06T06:33:46.191Z,13.60
2023-05-06T06:36:12.889Z,13.50
2023-05-06T06:38:40.155Z,13.60
2023-05-06T06:41:06.924Z,13.40
2023-05-06T06:43:33.825Z,14.40
2023-05-06T06:46:00.869Z,13.90
2023-05-06T06:48:27.644Z,14.00
2023-05-06T06:50:54.383Z,14.10
2023-05-06T06:53:21.375Z,14.10
2023-05-06T06:55:48.297Z,14.20
2023-05-06T06:58:15.081Z,14.20
2023-05-06T07:00:41.895Z,14.30
2023-05-06T07:03:08.690Z,14.30
2023-05-06T07:05:35.457Z,14.40
2023-05-06T07:08:02.181Z,14.50
2023-05-06T07:10:28.964Z,14.60
2023-05-06T07:12:55.781Z,14.60
2023-05-06T07:15:22.577Z,14.80
2023-05-06T07:17:49.407Z,15.00
2023-05-06T07:20:16.329Z,15.10
2023-05-06T07:22:43.748Z,15.00
2023-05-06T07:25:10.705Z,15.10
2023-05-06T07:27:37.962Z,15.30
2023-05-06T07:30:05.187Z,15.10
2023-05-06T07:32:31.963Z,15.40
2023-05-06T07:34:58.750Z,15.50
2023-05-06T07:37:25.560Z,15.40
2023-05-06T07:39:52.255Z,15.30
2023-05-06T07:42:19.021Z,15.40
2023-05-06T07:44:45.707Z,15.70
2023-05-06T07:47:14.637Z,15.60
2023-05-06T07:49:41.400Z,15.70
2023-05-06T07:52:08.131Z,15.80
2023-05-06T07:54:34.818Z,15.60
2023-05-06T07:57:02.512Z,15.70
2023-05-06T07:59:29.174Z,16.30
2023-05-06T08:01:55.866Z,16.00
2023-05-06T08:04:23.378Z,15.90
2023-05-06T08:06:50.124Z,16.10
2023-05-06T08:09:22.634Z,16.30
2023-05-06T08:11:50.844Z,16.50
2023-05-06T08:14:17.603Z,16.60
2023-05-06T08:16:45.549Z,16.60
2023-05-06T08:19:12.306Z,16.60
2023-05-06T08:21:39.005Z,16.60
2023-05-06T08:24:05.852Z,16.80
2023-05-06T08:26:32.595Z,16.70
2023-05-06T08:28:59.618Z,16.70
2023-05-06T08:31:26.900Z,16.60
2023-05-06T08:33:54.759Z,16.50
2023-05-06T08:36:22.432Z,16.50
2023-05-06T08:38:50.880Z,16.60
2023-05-06T08:41:19.714Z,16.50
2023-05-06T08:43:48.559Z,16.50
2023-05-06T08:46:16.813Z,16.30
2023-05-06T08:48:43.917Z,16.30
2023-05-06T08:51:14.802Z,16.40
2023-05-06T08:53:48.866Z,16.50
2023-05-06T08:56:16.729Z,16.70
2023-05-06T08:58:46.733Z,17.00
2023-05-06T09:01:15.300Z,17.30
2023-05-06T09:03:44.197Z,17.20
2023-05-06T09:06:10.962Z,17.00
2023-05-06T09:08:37.775Z,17.80
2023-05-06T09:11:20.180Z,17.70
2023-05-06T09:13:47.315Z,17.90
2023-05-06T09:16:28.528Z,17.90
2023-05-06T09:18:55.721Z,17.80
2023-05-06T09:21:29.276Z,17.80
2023-05-06T09:23:56.191Z,17.70
2023-05-06T09:26:23.432Z,17.70
2023-05-06T09:28:51.698Z,17.80
2023-05-06T09:31:18.469Z,18.00
2023-05-06T09:33:45.212Z,18.40
2023-05-06T09:36:13.536Z,18.80
2023-05-06T09:38:41.275Z,18.60
2023-05-06T09:41:08.509Z,18.60
2023-05-06T09:43:37.459Z,18.30
2023-05-06T09:46:06.501Z,18.40
2023-05-06T09:48:33.815Z,18.60
2023-05-06T09:51:01.587Z,18.80
2023-05-06T09:53:29.413Z,19.00
2023-05-06T09:55:58.442Z,19.10
2023-05-06T09:58:26.265Z,19.50
2023-05-06T10:00:53.315Z,19.50
2023-05-06T10:03:21.898Z,19.20
2023-05-06T10:05:49.766Z,19.10
2023-05-06T10:08:19.036Z,19.10
2023-05-06T10:10:49.193Z,19.00
2023-05-06T10:13:17.402Z,19.20
2023-05-06T10:15:47.077Z,19.30
2023-05-06T10:18:16.817Z,19.30
2023-05-06T10:20:44.724Z,19.30
2023-05-06T10:23:37.674Z,19.20
2023-05-06T10:26:10.601Z,19.50
2023-05-06T10:28:41.180Z,19.20
2023-05-06T10:31:12.997Z,19.00
2023-05-06T10:33:42.546Z,18.90
2023-05-06T10:36:21.586Z,18.70
2023-05-06T10:39:00.747Z,18.90
2023-05-06T10:41:29.093Z,18.90
2023-05-06T10:43:57.134Z,18.90
2023-05-06T10:46:26.288Z,18.80
2023-05-06T10:49:11.461Z,18.90
2023-05-06T10:51:39.294Z,18.90
2023-05-06T10:54:07.761Z,18.90
2023-05-06T10:56:50.668Z,18.80
2023-05-06T10:59:25.782Z,18.70
2023-05-06T11:02:09.480Z,18.90
2023-05-06T11:04:37.552Z,19.10
2023-05-06T11:07:07.917Z,19.40
2023-05-06T11:10:19.938Z,19.50
2023-05-06T11:12:52.660Z,19.50
2023-05-06T11:15:40.199Z,19.60
2023-05-06T11:18:25.621Z,19.70
2023-05-06T11:21:12.786Z,20.20
2023-05-06T11:23:42.816Z,20.30
2023-05-06T11:26:10.564Z,20.50
2023-05-06T11:28:37.448Z,20.40
2023-05-06T11:31:04.442Z,20.60
2023-05-06T11:33:36.454Z,20.60
2023-05-06T11:36:06.891Z,20.40
2023-05-06T11:38:48.000Z,20.30
2023-05-06T11:41:16.924Z,20.90
2023-05-06T11:43:49.928Z,21.00
2023-05-06T11:46:18.588Z,20.60
2023-05-06T11:48:45.477Z,20.70
2023-05-06T11:51:12.191Z,20.70
2023-05-06T11:53:39.004Z,21.00
2023-05-06T11:56:08.851Z,21.40
2023-05-06T11:58:35.675Z,21.00
2023-05-06T12:01:03.938Z,20.70
2023-05-06T12:03:32.779Z,20.80
2023-05-06T12:06:00.418Z,20.70
2023-05-06T12:08:33.188Z,21.10
2023-05-06T12:11:02.253Z,21.20
2023-05-06T12:13:29.726Z,21.40
2023-05-06T12:15:59.207Z,21.60
2023-05-06T12:18:26.687Z,21.50
2023-05-06T12:20:57.518Z,21.60
2023-05-06T12:23:26.094Z,21.90
2023-05-06T12:26:08.280Z,22.30
2023-05-06T12:28:36.713Z,22.80
2023-05-06T12:31:23.123Z,23.30
2023-05-06T12:33:50.633Z,23.60
2023-05-06T12:36:18.624Z,23.80
2023-05-06T12:39:00.508Z,24.00
2023-05-06T12:41:41.859Z,24.20
2023-05-06T12:44:34.500Z,24.40
2023-05-06T12:47:04.300Z,24.50
2023-05-06T12:49:47.986Z,24.40
2023-05-06T12:52:16.089Z,24.60
2023-05-06T12:54:42.979Z,24.50
2023-05-06T12:57:09.763Z,24.40
2023-05-06T12:59:37.345Z,24.60
2023-05-06T13:02:05.131Z,24.50
2023-05-06T13:04:32.202Z,24.90
2023-05-06T13:06:59.039Z,25.20
2023-05-06T13:09:26.072Z,25.10
2023-05-06T13:11:53.145Z,25.00
2023-05-06T13:14:19.858Z,24.70
2023-05-06T13:16:48.172Z,23.90
2023-05-06T13:19:30.873Z,23.00
2023-05-06T13:21:59.037Z,22.90
2023-05-06T13:24:25.911Z,23.50
2023-05-06T13:35:05.740Z,28.80
2023-05-06T13:37:32.422Z,29.20
2023-05-06T13:40:02.108Z,28.80
2023-05-06T13:42:41.935Z,29.20
2023-05-06T13:52:47.907Z,27.70
2023-05-06T13:55:14.985Z,28.50
2023-05-06T13:57:42.333Z,28.90
2023-05-06T14:00:10.296Z,30.40
2023-05-06T14:02:37.455Z,31.80
2023-05-06T14:05:04.716Z,32.20
2023-05-06T14:07:31.468Z,32.50
2023-05-06T14:09:58.557Z,32.60
2023-05-06T14:12:25.305Z,32.10
2023-05-06T14:14:52.162Z,30.00
2023-05-06T14:17:18.930Z,27.90
2023-05-06T14:19:45.926Z,26.70
2023-05-06T14:22:12.836Z,26.90
2023-05-06T14:24:39.582Z,28.00
2023-05-06T14:27:06.395Z,29.10
2023-05-06T14:29:33.152Z,29.50
2023-05-06T14:32:00.119Z,28.90
2023-05-06T14:34:27.524Z,28.70
2023-05-06T14:36:54.264Z,28.30
2023-05-06T14:39:20.996Z,28.40
2023-05-06T14:41:47.781Z,29.00
2023-05-06T14:44:15.266Z,29.50
2023-05-06T14:46:42.039Z,29.60
2023-05-06T14:49:08.806Z,29.90
2023-05-06T14:51:35.598Z,30.20
2023-05-06T14:54:02.325Z,30.00
2023-05-06T14:56:29.172Z,29.80
2023-05-06T14:58:56.505Z,30.20
2023-05-06T15:01:23.266Z,30.50
2023-05-06T15:03:51.238Z,30.60
2023-05-06T15:06:19.250Z,30.90
2023-05-06T15:08:46.537Z,31.20
2023-05-06T15:11:13.302Z,31.20
2023-05-06T15:13:40.058Z,31.20
2023-05-06T15:16:08.534Z,31.30
2023-05-06T15:18:38.091Z,31.10
2023-05-06T15:21:04.899Z,30.40
2023-05-06T15:23:31.662Z,30.30
2023-05-06T15:25:58.439Z,30.20
2023-05-06T15:28:25.429Z,29.70
2023-05-06T15:30:52.120Z,29.50
2023-05-06T15:33:18.878Z,29.10
2023-05-06T15:35:46.149Z,28.80
2023-05-06T15:38:12.921Z,28.80
2023-05-06T15:40:42.745Z,28.70
2023-05-06T15:43:09.816Z,28.60
2023-05-06T15:45:37.551Z,28.30
2023-05-06T15:48:04.399Z,28.40
2023-05-06T15:50:33.810Z,28.50
2023-05-06T15:53:01.644Z,28.60
2023-05-06T15:55:28.874Z,28.50
2023-05-06T15:57:57.433Z,28.50
2023-05-06T16:00:26.076Z,28.20
2023-05-06T16:03:09.741Z,28.00
2023-05-06T16:05:38.514Z,27.80
2023-05-06T16:08:05.578Z,27.40
2023-05-06T16:10:32.327Z,27.20
2023-05-06T16:12:59.278Z,26.80
2023-05-06T16:15:26.080Z,26.30
2023-05-06T16:17:52.852Z,25.80
2023-05-06T16:20:19.668Z,25.50
2023-05-06T16:22:50.640Z,25.20
2023-05-06T16:25:17.451Z,24.90
2023-05-06T16:27:44.190Z,24.60
2023-05-06T16:30:11.673Z,24.10
2023-05-06T16:32:38.565Z,23.90
2023-05-06T16:35:05.635Z,23.70
2023-05-06T16:37:32.372Z,23.60
2023-05-06T16:39:59.118Z,23.30
2023-05-06T16:42:25.899Z,23.20
2023-05-06T16:44:52.716Z,23.00
2023-05-06T16:47:24.185Z,22.80
2023-05-06T16:49:51.178Z,22.70
2023-05-06T16:52:19.185Z,22.50
2023-05-06T16:54:45.912Z,22.20
2023-05-06T16:57:12.764Z,22.10
2023-05-06T16:59:39.547Z,22.10
2023-05-06T17:02:06.694Z,22.00
2023-05-06T17:04:33.441Z,22.00
2023-05-06T17:07:00.396Z,22.00
2023-05-06T17:09:27.242Z,21.80
2023-05-06T17:11:54.002Z,21.70
2023-05-06T17:14:21.016Z,21.50
2023-05-06T17:16:47.825Z,21.50
2023-05-06T17:19:14.769Z,21.30
2023-05-06T17:21:41.697Z,21.20
2023-05-06T17:24:08.560Z,21.10
2023-05-06T17:26:35.774Z,20.90
2023-05-06T17:29:02.582Z,20.80
2023-05-06T17:31:29.378Z,20.60
2023-05-06T17:33:57.463Z,20.50
2023-05-06T17:36:24.205Z,20.40
2023-05-06T17:39:05.048Z,20.30
2023-05-06T17:41:32.541Z,20.10
2023-05-06T17:43:59.509Z,20.00
2023-05-06T17:46:26.725Z,19.90
2023-05-06T17:48:53.703Z,19.70
2023-05-06T17:51:20.939Z,19.70
2023-05-06T17:53:47.707Z,19.60
2023-05-06T17:56:14.462Z,19.50
2023-05-06T17:58:41.284Z,19.40
2023-05-06T18:01:08.971Z,19.30
2023-05-06T18:03:35.935Z,19.20
2023-05-06T18:06:02.842Z,19.00
2023-05-06T18:08:29.659Z,19.00
2023-05-06T18:10:56.628Z,18.90
2023-05-06T18:13:23.592Z,18.80
2023-05-06T18:15:50.337Z,18.90
2023-05-06T18:18:17.144Z,18.70
2023-05-06T18:20:43.963Z,18.70
2023-05-06T18:23:10.737Z,18.70
2023-05-06T18:25:37.515Z,18.60
2023-05-06T18:28:05.490Z,18.60
2023-05-06T18:30:32.232Z,18.50
2023-05-06T18:32:59.038Z,18.50
2023-05-06T18:35:25.877Z,18.40
2023-05-06T18:37:52.623Z,18.40
2023-05-06T18:40:19.431Z,18.30
2023-05-06T18:42:47.486Z,18.30
2023-05-06T18:45:14.306Z,18.30
2023-05-06T18:47:41.127Z,18.20
2023-05-06T18:50:08.861Z,18.20
2023-05-06T18:52:38.534Z,18.10
2023-05-06T18:55:06.018Z,18.10
2023-05-06T18:57:32.783Z,17.90
2023-05-06T18:59:59.554Z,17.90
2023-05-06T19:02:26.775Z,17.80
2023-05-06T19:04:53.561Z,17.70
2023-05-06T19:07:20.418Z,17.60
2023-05-06T19:09:47.174Z,17.70
2023-05-06T19:12:15.177Z,17.70
2023-05-06T19:14:41.930Z,17.60
2023-05-06T19:17:08.751Z,17.50
2023-05-06T19:19:35.555Z,17.50
2023-05-06T19:22:02.326Z,17.50
2023-05-06T19:24:30.630Z,17.50
2023-05-06T19:26:57.383Z,17.50
2023-05-06T19:29:24.313Z,17.30
2023-05-06T19:31:51.053Z,17.40
2023-05-06T19:34:17.974Z,17.40
2023-05-06T19:36:44.945Z,17.30
2023-05-06T19:39:11.694Z,17.30
2023-05-06T19:41:39.440Z,17.20
2023-05-06T19:44:06.330Z,17.20
2023-05-06T19:46:33.137Z,17.20
2023-05-06T19:49:00.921Z,17.10
2023-05-06T19:51:28.404Z,17.00
2023-05-06T19:53:55.164Z,17.00
2023-05-06T19:56:22.007Z,16.90
2023-05-06T19:58:50.955Z,17.00
2023-05-06T20:01:21.877Z,16.90
2023-05-06T20:03:48.838Z,17.10
2023-05-06T20:06:15.695Z,16.90
2023-05-06T20:08:42.466Z,16.90
2023-05-06T20:11:09.275Z,16.90
2023-05-06T20:13:36.062Z,16.90
2023-05-06T20:16:03.390Z,16.90
2023-05-06T20:18:31.869Z,16.90
2023-05-06T20:20:58.629Z,16.90
2023-05-06T20:23:25.885Z,16.80
2023-05-06T20:25:53.164Z,16.80
2023-05-06T20:28:19.902Z,16.80
2023-05-06T20:30:48.083Z,16.80
2023-05-06T20:33:14.883Z,16.70
2023-05-06T20:35:42.628Z,16.70
2023-05-06T20:38:10.871Z,16.60
2023-05-06T20:40:37.663Z,16.60
2023-05-06T20:43:04.428Z,16.50
2023-05-06T20:45:31.498Z,16.50
2023-05-06T20:47:58.719Z,16.50
2023-05-06T20:50:25.837Z,16.50
2023-05-06T20:52:54.290Z,16.30
2023-05-06T20:55:23.220Z,16.30
2023-05-06T20:57:50.228Z,16.20
2023-05-06T21:00:17.486Z,16.00
2023-05-06T21:02:44.278Z,16.00
2023-05-06T21:05:11.762Z,15.80
2023-05-06T21:07:39.017Z,15.90
2023-05-06T21:10:06.144Z,15.90
2023-05-06T21:12:37.915Z,15.80
2023-05-06T21:15:05.163Z,15.80
2023-05-06T21:17:31.984Z,15.70
2023-05-06T21:19:58.857Z,15.70
2023-05-06T21:22:26.036Z,15.70
2023-05-06T21:24:52.799Z,15.70
2023-05-06T21:27:19.568Z,15.70
2023-05-06T21:29:46.623Z,15.70
2023-05-06T21:32:13.443Z,15.70
2023-05-06T21:34:40.175Z,15.70
2023-05-06T21:37:07.057Z,15.70
2023-05-06T21:39:33.848Z,15.70
2023-05-06T21:42:00.670Z,15.60
2023-05-06T21:44:27.424Z,15.60
2023-05-06T21:46:54.302Z,15.60
2023-05-06T21:49:22.307Z,15.50
2023-05-06T21:51:49.394Z,15.50
2023-05-06T21:54:17.352Z,15.50
2023-05-06T21:56:45.115Z,15.40
2023-05-06T21:59:11.872Z,15.30
2023-05-06T22:01:39.018Z,15.40
2023-05-06T22:04:11.100Z,15.30
2023-05-06T22:06:39.055Z,15.30
2023-05-06T22:09:09.290Z,15.30
2023-05-06T22:11:37.948Z,15.30
2023-05-06T22:14:05.972Z,15.30
2023-05-06T22:16:35.381Z,15.20
2023-05-06T22:19:03.889Z,15.10
2023-05-06T22:21:31.936Z,15.10
2023-05-06T22:23:58.781Z,15.10
2023-05-06T22:26:28.011Z,15.00
2023-05-06T22:28:56.309Z,15.00
2023-05-06T22:31:24.681Z,15.00
2023-05-06T22:33:55.470Z,15.00
2023-05-06T22:36:22.531Z,15.00
2023-05-06T22:38:49.358Z,15.00
2023-05-06T22:41:17.505Z,15.00
2023-05-06T22:43:44.285Z,15.10
2023-05-06T22:46:11.152Z,15.10
2023-05-06T22:48:38.019Z,15.00
2023-05-06T22:51:05.057Z,15.00
2023-05-06T22:53:32.010Z,14.90
2023-05-06T22:55:58.875Z,14.90
2023-05-06T22:58:25.716Z,14.80
2023-05-06T23:00:54.133Z,14.80
2023-05-06T23:03:22.496Z,14.60
2023-05-06T23:05:49.803Z,14.80
2023-05-06T23:08:16.654Z,14.80
2023-05-06T23:10:43.458Z,14.80
2023-05-06T23:13:10.277Z,15.00
2023-05-06T23:15:37.097Z,14.70
2023-05-06T23:18:04.441Z,14.70
2023-05-06T23:20:31.292Z,14.80
2023-05-06T23:22:59.233Z,15.10
2023-05-06T23:25:26.962Z,15.00
2023-05-06T23:27:53.812Z,14.60
2023-05-06T23:30:20.691Z,14.70
2023-05-06T23:32:47.421Z,14.60
2023-05-06T23:35:14.190Z,14.60
2023-05-06T23:37:40.941Z,14.60
2023-05-06T23:40:08.116Z,14.50
2023-05-06T23:42:34.995Z,14.40
2023-05-06T23:45:01.680Z,14.40
2023-05-06T23:47:28.361Z,14.50
2023-05-06T23:49:55.082Z,14.40
2023-05-06T23:52:21.776Z,14.40
2023-05-06T23:54:48.693Z,14.30
2023-05-06T23:57:15.486Z,14.30
2023-05-06T23:59:42.572Z,14.30
